Time;durP1;ratioP1;P1;durP2;ratioP2;P2;SDS_P1;SDS_P2;PMS_P1;PMS_P2;Temp;Humidity;BMP_temperature;BMP_pressure;BME280_temperature;BME280_humidity;BME280_pressure;Samples;Min_cycle;Max_cycle;Signal;HPM_P1;HPM_P2
2023/01/05 00:01:34;;;;;;;1.00;1.00;;;;;;;7.77;100.00;97217.72;5043451;28;20378;-71
2023/01/05 00:04:04;;;;;;;1.03;1.00;;;;;;;7.66;100.00;97219.72;5047287;28;20234;-72
2023/01/05 00:06:31;;;;;;;1.70;1.20;;;;;;;7.64;100.00;97212.94;5004388;28;20219;-71
2023/01/05 00:08:59;;;;;;;0.90;0.90;;;;;;;7.73;100.00;97219.03;5043047;28;20227;-71
2023/01/05 00:22:33;;;;;;;1.00;1.00;;;;;;;7.64;100.00;97224.31;5001008;28;20365;-70
2023/01/05 00:25:04;;;;;;;1.40;1.40;;;;;;;7.61;100.00;97215.91;5042160;28;20621;-71
2023/01/05 00:27:39;;;;;;;1.37;1.00;;;;;;;7.65;100.00;97211.94;5001411;28;20284;-71
2023/01/05 00:30:10;;;;;;;1.13;1.13;;;;;;;7.69;100.00;97208.00;5039266;28;20246;-71
2023/01/05 00:32:38;;;;;;;1.13;1.03;;;;;;;7.73;100.00;97216.41;5031975;28;20529;-70
2023/01/05 00:35:06;;;;;;;2.07;0.83;;;;;;;7.76;100.00;97193.16;5037792;28;20646;-69
2023/01/05 00:37:36;;;;;;;1.00;1.00;;;;;;;7.78;100.00;97188.56;5024634;28;20299;-70
2023/01/05 00:40:05;;;;;;;1.23;1.00;;;;;;;7.84;100.00;97178.31;5044505;28;20227;-69
2023/01/05 00:42:33;;;;;;;1.00;1.00;;;;;;;7.78;100.00;97172.72;5008947;28;20233;-69
2023/01/05 00:45:01;;;;;;;1.10;1.10;;;;;;;7.71;100.00;97174.38;5036411;28;20264;-70
2023/01/05 00:47:30;;;;;;;1.73;0.80;;;;;;;7.73;100.00;97180.28;5049820;28;20456;-71
2023/01/05 00:49:58;;;;;;;1.70;0.97;;;;;;;7.73;100.00;97187.41;5044462;28;20286;-70
2023/01/05 00:52:25;;;;;;;1.00;1.00;;;;;;;7.66;100.00;97184.59;5029842;28;20215;-69
2023/01/05 00:54:53;;;;;;;0.90;0.90;;;;;;;7.62;100.00;97192.03;5046888;28;20289;-69
2023/01/05 00:57:21;;;;;;;0.97;0.97;;;;;;;7.55;100.00;97187.56;5003559;28;20219;-70
2023/01/05 00:59:49;;;;;;;0.80;0.80;;;;;;;7.50;100.00;97194.16;5044218;28;20326;-70
2023/01/05 01:02:16;;;;;;;0.90;0.90;;;;;;;7.46;100.00;97178.81;5023174;28;20305;-72
2023/01/05 01:04:45;;;;;;;2.63;1.23;;;;;;;7.45;100.00;97180.66;5045883;28;20210;-71
2023/01/05 01:07:13;;;;;;;0.90;0.90;;;;;;;7.56;100.00;97191.84;5043107;28;20199;-72
2023/01/05 01:09:41;;;;;;;1.00;1.00;;;;;;;7.58;100.00;97189.88;5027295;28;20796;-70
2023/01/05 01:12:08;;;;;;;1.00;1.00;;;;;;;7.59;100.00;97187.09;5004055;28;20350;-72
2023/01/05 01:14:37;;;;;;;1.63;1.53;;;;;;;7.60;100.00;97182.63;5040109;28;20196;-72
2023/01/05 01:17:04;;;;;;;1.20;1.20;;;;;;;7.64;100.00;97178.66;5034504;28;20463;-72
2023/01/05 01:19:32;;;;;;;1.03;1.03;;;;;;;7.58;100.00;97171.41;5042410;28;20219;-71
2023/01/05 01:22:01;;;;;;;0.90;0.90;;;;;;;7.46;100.00;97176.19;5040915;28;20195;-72
2023/01/05 01:24:29;;;;;;;1.40;1.30;;;;;;;7.43;100.00;97179.16;5021094;28;20207;-71
2023/01/05 01:26:56;;;;;;;0.87;0.87;;;;;;;7.40;100.00;97182.97;5038254;28;20720;-70
2023/01/05 01:29:24;;;;;;;0.97;0.97;;;;;;;7.35;100.00;97178.16;4985628;28;20218;-72
2023/01/05 01:31:53;;;;;;;1.40;1.20;;;;;;;7.37;100.00;97175.34;5045310;28;20350;-71
2023/01/05 01:34:22;;;;;;;1.20;1.20;;;;;;;7.35;100.00;97174.69;5022713;28;20257;-70
2023/01/05 01:36:49;;;;;;;1.97;1.47;;;;;;;7.37;100.00;97176.19;5032347;28;20207;-70
2023/01/05 01:39:18;;;;;;;1.57;1.50;;;;;;;7.40;100.00;97182.97;5028073;28;20309;-70
2023/01/05 01:41:46;;;;;;;1.20;1.20;;;;;;;7.27;100.00;97164.97;5043254;28;20211;-71
2023/01/05 01:44:48;;;;;;;1.63;1.53;;;;;;;7.34;100.00;97165.97;5006247;28;20246;-69
2023/01/05 01:47:20;;;;;;;2.03;1.50;;;;;;;7.38;100.00;97156.75;5040755;28;20602;-71
2023/01/05 01:49:48;;;;;;;1.47;1.37;;;;;;;7.33;100.00;97161.69;5048225;28;20203;-71
2023/01/05 01:52:15;;;;;;;1.13;1.13;;;;;;;7.37;100.00;97164.81;5047676;28;20298;-70
2023/01/05 01:54:45;;;;;;;1.63;1.33;;;;;;;7.31;100.00;97161.03;5035431;28;20978;-72
2023/01/05 01:57:13;;;;;;;1.60;1.60;;;;;;;7.37;100.00;97157.72;5048008;28;20606;-70
2023/01/05 01:59:41;;;;;;;1.40;1.40;;;;;;;7.31;100.00;97149.66;5005694;28;20260;-72
2023/01/05 02:02:08;;;;;;;1.90;1.40;;;;;;;7.26;100.00;97141.41;5049123;28;20203;-71
2023/01/05 02:04:37;;;;;;;1.17;1.17;;;;;;;7.24;100.00;97139.78;5048166;28;20202;-73
2023/01/05 02:07:07;;;;;;;1.77;1.67;;;;;;;7.19;100.00;97130.69;5047253;28;20210;-71
2023/01/05 02:09:34;;;;;;;1.33;1.30;;;;;;;7.21;100.00;97145.38;5034847;28;20318;-73
2023/01/05 02:12:11;;;;;;;1.47;1.47;;;;;;;7.23;100.00;97135.47;5045406;28;20211;-73
2023/01/05 02:14:44;;;;;;;1.50;1.43;;;;;;;7.24;100.00;97141.59;4995491;28;20450;-73
2023/01/05 02:17:18;;;;;;;1.47;1.43;;;;;;;7.24;100.00;97142.41;5028385;28;20249;-70
2023/01/05 02:20:23;;;;;;;1.30;1.30;;;;;;;7.21;100.00;97145.38;5049225;28;20254;-72
2023/01/05 02:23:05;;;;;;;1.60;1.57;;;;;;;7.24;100.00;97138.97;5046530;28;20825;-73
2023/01/05 02:25:58;;;;;;;1.60;1.50;;;;;;;7.26;100.00;97139.63;5033821;28;20817;-73
2023/01/05 02:28:43;;;;;;;1.80;1.70;;;;;;;7.28;100.00;97137.63;5010053;28;21060;-71
2023/01/05 02:31:15;;;;;;;1.50;1.50;;;;;;;7.36;100.00;97131.53;5036327;28;20203;-70
2023/01/05 02:33:55;;;;;;;1.37;1.37;;;;;;;7.32;100.00;97131.06;5039614;28;20203;-72
2023/01/05 02:36:27;;;;;;;2.13;1.50;;;;;;;7.30;100.00;97116.38;5023750;28;20264;-73
2023/01/05 02:38:59;;;;;;;1.40;1.40;;;;;;;7.26;100.00;97110.63;5040203;28;20689;-70
2023/01/05 02:41:32;;;;;;;2.67;1.53;;;;;;;7.32;100.00;97109.13;5049368;28;20274;-73
2023/01/05 02:44:00;;;;;;;1.60;1.60;;;;;;;7.29;100.00;97120.00;5031155;28;20211;-72
2023/01/05 02:46:30;;;;;;;1.40;1.30;;;;;;;7.27;100.00;97107.00;5035092;28;20291;-74
2023/01/05 02:48:59;;;;;;;1.43;1.43;;;;;;;7.26;100.00;97118.53;5014364;28;20219;-71
2023/01/05 02:51:31;;;;;;;1.20;1.20;;;;;;;7.23;100.00;97124.94;5039794;28;20336;-73
2023/01/05 02:54:02;;;;;;;1.37;1.37;;;;;;;7.22;100.00;97120.66;5050961;28;20195;-70
2023/01/05 02:56:34;;;;;;;1.40;1.40;;;;;;;7.22;100.00;97117.22;5033555;28;20207;-73
2023/01/05 02:59:07;;;;;;;1.27;1.27;;;;;;;7.21;100.00;97118.22;5021789;28;20262;-70
2023/01/05 03:01:38;;;;;;;1.40;1.40;;;;;;;7.24;100.00;97113.41;5036108;28;20228;-72
2023/01/05 03:04:08;;;;;;;1.10;1.10;;;;;;;7.17;100.00;97117.69;5039590;28;20272;-70
2023/01/05 03:06:45;;;;;;;1.40;1.40;;;;;;;7.14;100.00;97117.19;5007656;28;20305;-72
2023/01/05 03:09:14;;;;;;;1.60;1.50;;;;;;;7.15;100.00;97109.13;5046966;28;20230;-71
2023/01/05 03:14:33;;;;;;;1.23;1.23;;;;;;;7.14;100.00;97098.75;5013130;28;20199;-72
2023/01/05 03:17:06;;;;;;;1.30;1.30;;;;;;;7.13;100.00;97097.94;5039724;28;20309;-71
2023/01/05 03:19:38;;;;;;;1.10;1.10;;;;;;;7.13;100.00;97094.47;5042527;28;21040;-72
2023/01/05 03:36:23;;;;;;;1.37;1.37;;;;;;;7.26;100.00;97081.63;4988193;28;20305;-71
2023/01/05 03:38:51;;;;;;;0.93;0.93;;;;;;;7.26;100.00;97088.72;5033593;28;20223;-72
2023/01/05 03:41:19;;;;;;;1.20;1.20;;;;;;;7.19;100.00;97078.84;5032918;28;20219;-70
2023/01/05 03:43:48;;;;;;;1.13;1.03;;;;;;;7.27;100.00;97087.72;5028015;28;20211;-71
2023/01/05 03:46:17;;;;;;;1.37;1.37;;;;;;;7.26;100.00;97088.72;5017243;28;20200;-74
2023/01/05 03:48:47;;;;;;;1.07;1.07;;;;;;;7.24;100.00;97080.97;5041286;28;20787;-72
2023/01/05 03:51:15;;;;;;;1.00;1.00;;;;;;;7.29;100.00;97085.75;5014497;28;20211;-69
2023/01/05 03:53:43;;;;;;;1.00;1.00;;;;;;;7.33;100.00;97082.63;4995538;28;20235;-71
2023/01/05 03:56:11;;;;;;;1.20;1.20;;;;;;;7.29;100.00;97067.28;5025486;28;20234;-67
2023/01/05 03:58:39;;;;;;;1.00;1.00;;;;;;;7.43;100.00;97064.00;5033558;28;20219;-71
2023/01/05 04:01:07;;;;;;;0.80;0.80;;;;;;;7.45;100.00;97062.03;5001414;28;20772;-70
2023/01/05 04:03:35;;;;;;;1.20;1.20;;;;;;;7.42;100.00;97064.16;5033532;28;20211;-69
2023/01/05 04:06:05;;;;;;;0.90;0.90;;;;;;;7.43;100.00;97064.00;5047315;28;20495;-72
2023/01/05 04:08:32;;;;;;;1.57;1.47;;;;;;;7.42;100.00;97046.53;4999560;28;20231;-70
2023/01/05 04:11:11;;;;;;;0.77;0.77;;;;;;;7.44;100.00;97039.28;5031241;28;20199;-70
2023/01/05 04:13:38;;;;;;;1.00;1.00;;;;;;;7.50;100.00;97053.59;5021836;28;20442;-73
2023/01/05 04:16:07;;;;;;;0.97;0.97;;;;;;;7.56;100.00;97042.38;5000805;28;20215;-72
2023/01/05 04:18:34;;;;;;;0.90;0.90;;;;;;;7.69;100.00;97041.84;5027745;28;20259;-73
2023/01/05 04:21:02;;;;;;;0.90;0.90;;;;;;;7.64;100.00;97031.00;5026085;28;20243;-72
2023/01/05 04:23:31;;;;;;;1.27;1.27;;;;;;;7.65;100.00;97036.09;5001542;28;20223;-72
2023/01/05 04:25:59;;;;;;;0.83;0.83;;;;;;;7.63;100.00;97035.44;5020120;28;20668;-70
2023/01/05 04:28:26;;;;;;;0.80;0.80;;;;;;;7.68;100.00;97045.47;5033191;28;20227;-72
2023/01/05 04:30:55;;;;;;;1.30;0.93;;;;;;;7.64;100.00;97049.44;4998745;28;20207;-71
2023/01/05 04:33:24;;;;;;;0.80;0.80;;;;;;;7.68;100.00;97040.19;5037919;28;20237;-73
2023/01/05 04:35:52;;;;;;;0.73;0.73;;;;;;;7.71;100.00;97045.13;5031417;28;20243;-71
2023/01/05 04:38:19;;;;;;;0.70;0.70;;;;;;;7.79;100.00;97045.13;4991656;28;20675;-71
2023/01/05 04:40:50;;;;;;;1.27;0.70;;;;;;;7.95;100.00;97046.91;5037786;28;20224;-70
2023/01/05 04:43:18;;;;;;;1.57;0.63;;;;;;;7.91;100.00;97047.41;4988243;28;20657;-72
2023/01/05 04:45:47;;;;;;;0.70;0.70;;;;;;;7.95;100.00;97040.78;5037553;28;20206;-72
2023/01/05 04:48:15;;;;;;;0.50;0.50;;;;;;;8.04;100.00;97044.22;5022872;28;20310;-71
2023/01/05 04:50:43;;;;;;;1.23;0.50;;;;;;;8.11;100.00;97031.97;5007414;28;20365;-70
2023/01/05 04:53:11;;;;;;;1.80;0.60;;;;;;;8.21;100.00;97040.50;5017710;28;20363;-72
2023/01/05 04:55:39;;;;;;;0.40;0.40;;;;;;;8.23;100.00;97038.50;5032507;28;20238;-71
2023/01/05 04:58:08;;;;;;;0.70;0.70;;;;;;;8.15;100.00;97033.28;5009714;28;20329;-71
2023/01/05 05:00:39;;;;;;;0.77;0.77;;;;;;;8.19;100.00;97036.41;4990523;28;20244;-71
2023/01/05 05:03:06;;;;;;;0.50;0.50;;;;;;;8.30;100.00;97037.81;5012947;28;20939;-72
2023/01/05 05:05:34;;;;;;;0.53;0.53;;;;;;;8.20;100.00;97045.97;5003817;28;20212;-71
2023/01/05 05:08:02;;;;;;;0.50;0.50;;;;;;;8.22;100.00;97041.34;5034044;28;20435;-71
2023/01/05 05:10:30;;;;;;;0.40;0.40;;;;;;;8.16;100.00;97060.50;5013094;28;20298;-71
2023/01/05 05:12:58;;;;;;;0.50;0.50;;;;;;;8.23;100.00;97050.91;5035147;28;20319;-71
2023/01/05 05:15:27;;;;;;;0.30;0.30;;;;;;;8.17;100.00;97060.31;4997032;28;20634;-70
2023/01/05 05:17:54;;;;;;;0.30;0.30;;;;;;;8.18;100.00;97056.69;5011570;28;20227;-71
2023/01/05 05:20:22;;;;;;;0.60;0.60;;;;;;;8.09;100.00;97057.72;5034088;28;20309;-73
2023/01/05 05:22:50;;;;;;;0.57;0.50;;;;;;;8.08;100.00;97053.44;5026247;28;20562;-70
2023/01/05 05:25:18;;;;;;;0.50;0.50;;;;;;;8.00;100.00;97053.47;5032810;28;20755;-72
2023/01/05 05:27:45;;;;;;;0.53;0.53;;;;;;;7.93;100.00;97054.13;5032006;28;20306;-72
2023/01/05 05:30:13;;;;;;;1.30;0.40;;;;;;;7.89;100.00;97059.94;4975693;28;20291;-70
2023/01/05 05:32:42;;;;;;;0.50;0.50;;;;;;;7.87;100.00;97048.72;5029851;28;20207;-71
2023/01/05 05:35:11;;;;;;;0.50;0.50;;;;;;;7.95;100.00;97059.25;5018150;28;20211;-72
2023/01/05 05:37:38;;;;;;;0.50;0.50;;;;;;;7.95;100.00;97048.69;5012119;28;20214;-70
2023/01/05 05:40:07;;;;;;;0.50;0.50;;;;;;;7.97;100.00;97055.47;5036257;28;20658;-72
2023/01/05 05:42:35;;;;;;;0.50;0.50;;;;;;;7.96;100.00;97064.38;5032503;28;20337;-70
2023/01/05 05:45:03;;;;;;;0.50;0.50;;;;;;;8.01;100.00;97070.94;4989854;28;20313;-72
2023/01/05 05:47:31;;;;;;;0.50;0.50;;;;;;;8.08;100.00;97066.63;5018922;28;20237;-70
2023/01/05 05:50:00;;;;;;;0.60;0.60;;;;;;;8.11;100.00;97080.28;5022960;28;21017;-71
2023/01/05 05:52:28;;;;;;;0.77;0.77;;;;;;;8.18;100.00;97077.81;5016704;28;20697;-70
2023/01/05 05:54:55;;;;;;;0.63;0.50;;;;;;;8.11;100.00;97082.94;5011220;28;20326;-73
2023/01/05 05:57:23;;;;;;;0.70;0.70;;;;;;;8.05;100.00;97072.25;5040039;28;20302;-72
2023/01/05 05:59:50;;;;;;;0.97;0.97;;;;;;;8.06;100.00;97079.19;5024254;28;20199;-69
2023/01/05 06:02:18;;;;;;;0.50;0.50;;;;;;;7.97;100.00;97081.84;5007607;28;20222;-69
2023/01/05 06:04:46;;;;;;;0.60;0.60;;;;;;;7.93;100.00;97079.72;5033813;28;20982;-72
2023/01/05 06:07:15;;;;;;;0.60;0.60;;;;;;;7.79;100.00;97100.53;5022465;28;20211;-71
2023/01/05 06:09:43;;;;;;;15.17;3.73;;;;;;;7.80;100.00;97096.91;5024397;28;20273;-70
2023/01/05 06:12:10;;;;;;;1.03;1.03;;;;;;;7.74;100.00;97105.47;5034697;28;20215;-71
2023/01/05 06:14:38;;;;;;;0.80;0.80;;;;;;;7.79;100.00;97111.06;5008941;28;20207;-71
2023/01/05 06:17:06;;;;;;;0.53;0.53;;;;;;;7.79;100.00;97112.88;4994757;28;20219;-70
2023/01/05 06:19:34;;;;;;;1.43;1.43;;;;;;;7.74;100.00;97128.38;5033471;28;20313;-70
2023/01/05 06:22:01;;;;;;;0.70;0.70;;;;;;;7.69;100.00;97120.97;4996321;28;20224;-72
2023/01/05 06:24:30;;;;;;;0.97;0.80;;;;;;;7.79;100.00;97126.91;5038854;28;20652;-73
2023/01/05 06:26:58;;;;;;;0.80;0.80;;;;;;;7.88;100.00;97134.78;5021582;28;20200;-73
2023/01/05 06:29:25;;;;;;;0.73;0.73;;;;;;;7.79;100.00;97108.44;5019593;28;20250;-72
2023/01/05 06:31:53;;;;;;;1.07;1.00;;;;;;;7.80;100.00;97130.34;5034362;28;20195;-72
2023/01/05 06:34:21;;;;;;;0.83;0.83;;;;;;;7.73;100.00;97146.00;5001302;28;20211;-69
2023/01/05 06:36:48;;;;;;;0.90;0.90;;;;;;;7.79;100.00;97152.44;5037129;28;20211;-70
2023/01/05 06:39:16;;;;;;;0.83;0.83;;;;;;;7.85;100.00;97154.41;5029288;28;20236;-69
2023/01/05 06:41:45;;;;;;;1.00;1.00;;;;;;;7.80;100.00;97151.44;5015292;28;20253;-75
2023/01/05 06:44:13;;;;;;;1.00;1.00;;;;;;;7.78;100.00;97161.34;5024252;28;20218;-72
2023/01/05 06:46:40;;;;;;;2.70;1.07;;;;;;;7.71;100.00;97163.00;4988917;28;20220;-69
2023/01/05 06:49:11;;;;;;;1.43;1.43;;;;;;;7.65;100.00;97167.13;5001996;28;20773;-70
2023/01/05 06:51:39;;;;;;;0.93;0.90;;;;;;;7.68;100.00;97164.16;4988855;28;21191;-68
2023/01/05 06:54:06;;;;;;;0.70;0.70;;;;;;;7.60;100.00;97169.44;5035763;28;20360;-72
2023/01/05 06:56:36;;;;;;;0.90;0.90;;;;;;;7.65;100.00;97173.22;5038191;28;20588;-72
2023/01/05 06:59:04;;;;;;;1.03;1.03;;;;;;;7.62;100.00;97168.28;5031957;28;21335;-73
2023/01/05 07:01:32;;;;;;;1.17;0.93;;;;;;;7.63;100.00;97179.66;5020181;28;20422;-72
2023/01/05 07:04:00;;;;;;;1.40;1.30;;;;;;;7.69;100.00;97168.44;5037997;28;20204;-72
2023/01/05 07:06:27;;;;;;;1.10;1.10;;;;;;;7.72;100.00;97189.19;4995620;28;20984;-70
2023/01/05 07:08:55;;;;;;;1.50;1.30;;;;;;;7.65;100.00;97175.88;5025354;28;20437;-69
2023/01/05 07:11:23;;;;;;;1.37;1.37;;;;;;;7.67;100.00;97191.50;5041126;28;20396;-69
2023/01/05 07:13:50;;;;;;;3.80;1.50;;;;;;;7.64;100.00;97189.22;5024565;28;20214;-71
2023/01/05 07:16:19;;;;;;;1.52;1.50;;;;;;;7.63;100.00;97201.59;5042178;28;20461;-70
2023/01/05 07:18:47;;;;;;;2.17;1.63;;;;;;;7.57;100.00;97201.41;5040779;28;20351;-69
2023/01/05 07:21:15;;;;;;;2.75;2.17;;;;;;;7.49;100.00;97210.13;5039843;28;20464;-69
2023/01/05 07:23:43;;;;;;;1.70;1.60;;;;;;;7.48;100.00;97217.22;4997490;28;20276;-71
2023/01/05 07:26:10;;;;;;;1.73;1.50;;;;;;;7.51;100.00;97221.34;5040380;28;20531;-69
2023/01/05 07:28:38;;;;;;;1.60;1.50;;;;;;;7.44;100.00;97202.72;5027800;28;20253;-70
2023/01/05 07:31:07;;;;;;;3.23;2.23;;;;;;;7.39;100.00;97215.56;5044371;28;20211;-71
2023/01/05 07:33:36;;;;;;;3.67;2.00;;;;;;;7.48;100.00;97219.03;5037998;28;20442;-71
2023/01/05 07:36:08;;;;;;;2.47;2.00;;;;;;;7.45;100.00;97201.75;5039729;28;20214;-70
2023/01/05 07:38:35;;;;;;;2.23;2.07;;;;;;;7.42;100.00;97212.63;5008910;28;20246;-69
2023/01/05 07:41:03;;;;;;;2.87;1.97;;;;;;;7.45;100.00;97225.47;5039467;28;20370;-69
2023/01/05 07:43:30;;;;;;;2.63;2.03;;;;;;;7.43;100.00;97222.16;5022579;28;20482;-70
2023/01/05 07:46:00;;;;;;;3.87;2.90;;;;;;;7.41;100.00;97224.16;5039468;28;20453;-70
2023/01/05 07:48:28;;;;;;;3.30;2.30;;;;;;;7.55;100.00;97227.91;5036893;28;20332;-69
2023/01/05 07:51:01;;;;;;;2.77;2.47;;;;;;;7.50;100.00;97228.44;5036784;28;20724;-69
2023/01/05 07:53:29;;;;;;;4.00;2.00;;;;;;;7.60;100.00;97230.91;5002492;28;20697;-69
2023/01/05 07:55:57;;;;;;;4.10;1.87;;;;;;;7.66;100.00;97247.88;5038283;28;20203;-70
2023/01/05 07:58:26;;;;;;;5.93;2.17;;;;;;;7.74;100.00;97244.44;5022984;28;20726;-71
2023/01/05 08:00:54;;;;;;;3.00;2.10;;;;;;;7.72;100.00;97243.78;5027575;28;20451;-73
2023/01/05 08:03:24;;;;;;;3.30;2.10;;;;;;;7.65;100.00;97249.72;5050621;28;20222;-73
2023/01/05 08:05:51;;;;;;;7.27;2.33;;;;;;;7.67;100.00;97260.91;5044092;28;20203;-70
2023/01/05 08:08:20;;;;;;;2.53;1.93;;;;;;;7.64;100.00;97250.69;5048047;28;20241;-72
2023/01/05 08:10:51;;;;;;;5.80;2.63;;;;;;;7.60;100.00;97259.09;5007227;28;20630;-72
2023/01/05 08:16:04;;;;;;;1.83;1.43;;;;;;;7.71;100.00;97242.94;5047777;28;20847;-74
2023/01/05 08:18:32;;;;;;;3.63;2.20;;;;;;;7.68;100.00;97244.09;5038727;28;20243;-70
2023/01/05 08:21:03;;;;;;;3.43;2.00;;;;;;;7.68;100.00;97246.75;5048277;28;20725;-73
2023/01/05 08:23:39;;;;;;;3.88;2.72;;;;;;;7.71;100.00;97265.88;5032900;28;20546;-71
2023/01/05 08:26:12;;;;;;;4.83;2.60;;;;;;;7.73;100.00;97272.59;5049250;28;20242;-73
2023/01/05 08:28:40;;;;;;;4.83;2.73;;;;;;;7.77;100.00;97273.94;5027487;28;20322;-71
2023/01/05 08:31:11;;;;;;;5.47;2.33;;;;;;;7.81;99.20;97275.28;5051800;28;20649;-74
2023/01/05 08:33:38;;;;;;;5.70;2.50;;;;;;;7.87;97.41;97270.31;5036406;28;20950;-72
2023/01/05 08:36:08;;;;;;;3.90;2.30;;;;;;;7.91;96.91;97266.38;5049835;28;20400;-69
2023/01/05 08:38:37;;;;;;;2.60;1.97;;;;;;;7.92;95.63;97270.66;5036849;28;20306;-72
2023/01/05 08:41:05;;;;;;;7.37;3.57;;;;;;;7.88;96.14;97277.25;5012986;28;20203;-69
2023/01/05 08:43:33;;;;;;;6.50;2.47;;;;;;;7.90;94.76;97267.34;5026512;28;21729;-73
2023/01/05 08:46:00;;;;;;;3.83;2.00;;;;;;;7.89;94.67;97269.16;5046603;28;20586;-70
2023/01/05 08:48:28;;;;;;;2.83;1.80;;;;;;;7.92;93.83;97274.09;5046914;28;20229;-70
2023/01/05 08:51:02;;;;;;;4.10;2.63;;;;;;;7.91;93.95;97275.09;5046679;28;21100;-71
2023/01/05 08:53:30;;;;;;;5.80;2.30;;;;;;;7.90;94.20;97275.28;5043399;28;20198;-70
2023/01/05 08:55:58;;;;;;;5.23;2.60;;;;;;;7.90;95.17;97281.34;5015349;28;20210;-71
2023/01/05 08:58:26;;;;;;;4.00;1.93;;;;;;;7.93;93.52;97281.03;5005826;28;20226;-71
2023/01/05 09:00:54;;;;;;;2.30;1.70;;;;;;;8.00;93.36;97281.19;5035379;28;20198;-72
2023/01/05 09:03:22;;;;;;;5.20;2.40;;;;;;;8.02;93.04;97283.69;5038428;28;20568;-73
2023/01/05 09:05:52;;;;;;;3.73;2.20;;;;;;;8.08;92.41;97288.31;5027767;28;20429;-71
2023/01/05 09:08:20;;;;;;;3.23;1.80;;;;;;;8.08;92.29;97286.47;5045813;28;20323;-71
2023/01/05 09:10:47;;;;;;;4.63;2.63;;;;;;;8.07;92.27;97281.38;5038578;28;20205;-72
2023/01/05 09:13:16;;;;;;;3.93;2.17;;;;;;;8.10;92.99;97288.97;5044554;28;20222;-72
2023/01/05 09:15:44;;;;;;;3.47;1.90;;;;;;;8.11;92.92;97294.06;5004720;28;20212;-70
2023/01/05 09:18:11;;;;;;;4.73;2.40;;;;;;;8.14;93.88;97300.81;5050411;28;20892;-73
2023/01/05 09:20:39;;;;;;;4.50;2.05;;;;;;;8.15;94.99;97310.41;5033982;28;20450;-70
2023/01/05 09:23:07;;;;;;;3.57;1.80;;;;;;;8.16;96.93;97311.22;5038181;28;20222;-70
2023/01/05 09:25:34;;;;;;;4.87;2.20;;;;;;;8.17;96.59;97312.88;5040664;28;20195;-71
2023/01/05 09:28:02;;;;;;;3.30;1.57;;;;;;;8.11;98.18;97315.16;5049719;28;20226;-72
2023/01/05 09:30:31;;;;;;;4.53;2.83;;;;;;;8.10;98.85;97328.53;5009395;28;20752;-68
2023/01/05 09:33:08;;;;;;;3.20;1.90;;;;;;;8.10;98.74;97326.72;5043872;28;20202;-67
2023/01/05 09:35:36;;;;;;;5.07;2.10;;;;;;;8.11;98.95;97336.28;5048214;28;20195;-71
2023/01/05 09:38:03;;;;;;;4.60;2.10;;;;;;;8.11;99.40;97336.28;5036901;28;20706;-71
2023/01/05 09:40:37;;;;;;;6.17;2.30;;;;;;;8.12;98.62;97342.41;5047787;28;20195;-68
2023/01/05 09:43:05;;;;;;;4.23;2.20;;;;;;;8.12;98.59;97347.66;5045806;28;20211;-72
2023/01/05 09:45:34;;;;;;;8.17;2.93;;;;;;;8.10;96.73;97331.19;5013362;28;20210;-72
2023/01/05 09:48:03;;;;;;;3.07;1.80;;;;;;;8.12;94.88;97339.75;5042173;28;20864;-73
2023/01/05 09:50:31;;;;;;;5.60;2.13;;;;;;;8.14;95.02;97348.34;5043945;28;20214;-72
2023/01/05 09:52:59;;;;;;;4.07;2.37;;;;;;;8.07;93.69;97337.59;5030661;28;20211;-72
2023/01/05 09:55:30;;;;;;;4.40;2.20;;;;;;;8.09;95.01;97343.53;5050829;28;20191;-71
2023/01/05 09:58:00;;;;;;;4.77;2.07;;;;;;;8.07;92.74;97326.22;5051699;28;20340;-71
2023/01/05 10:00:28;;;;;;;6.77;2.40;;;;;;;8.13;92.85;97336.13;5012642;28;20222;-70
2023/01/05 10:02:59;;;;;;;5.33;2.57;;;;;;;8.19;92.22;97326.75;5047680;28;20203;-70
2023/01/05 10:05:27;;;;;;;6.40;3.07;;;;;;;8.20;89.75;97342.38;5042339;28;20198;-71
2023/01/05 10:08:00;;;;;;;5.83;2.43;;;;;;;8.24;89.65;97327.88;5010455;28;20356;-70
2023/01/05 10:10:41;;;;;;;4.23;1.93;;;;;;;8.24;89.10;97329.69;5045500;28;20203;-68
2023/01/05 10:13:17;;;;;;;4.30;1.93;;;;;;;8.24;88.92;97335.78;5053105;28;20218;-71
2023/01/05 10:15:48;;;;;;;3.78;2.50;;;;;;;8.25;89.71;97326.06;5007024;28;20445;-70
2023/01/05 10:18:18;;;;;;;7.10;2.90;;;;;;;8.26;88.89;97333.81;5028778;28;20218;-72
2023/01/05 10:20:55;;;;;;;5.00;2.17;;;;;;;8.29;88.66;97332.66;5048087;28;20261;-71
2023/01/05 10:23:35;;;;;;;5.30;1.83;;;;;;;8.29;87.34;97321.25;5033704;28;20215;-75
2023/01/05 10:26:07;;;;;;;3.63;1.90;;;;;;;8.30;88.04;97328.19;5050148;28;20286;-72
2023/01/05 10:28:41;;;;;;;3.00;1.90;;;;;;;8.24;88.62;97322.59;5050174;28;20245;-71
2023/01/05 10:31:19;;;;;;;6.87;2.33;;;;;;;8.30;88.75;97321.13;5012459;28;20215;-73
2023/01/05 10:33:51;;;;;;;3.60;1.90;;;;;;;8.26;88.94;97323.25;5040695;28;20254;-74
2023/01/05 10:36:41;;;;;;;3.40;2.00;;;;;;;8.32;88.41;97320.94;5052224;28;20214;-71
2023/01/05 10:39:57;;;;;;;4.20;1.70;;;;;;;8.35;87.66;97315.34;5032519;28;20234;-70
2023/01/05 10:42:39;;;;;;;3.67;2.40;;;;;;;8.35;88.32;97329.34;5047520;28;20208;-70
2023/01/05 10:45:09;;;;;;;5.10;2.28;;;;;;;8.35;88.86;97316.16;5054062;28;20454;-72
2023/01/05 10:47:37;;;;;;;4.47;2.33;;;;;;;8.44;87.26;97321.41;5009576;28;20426;-70
2023/01/05 10:50:20;;;;;;;6.03;2.37;;;;;;;8.40;87.37;97318.31;5045374;28;20207;-72
2023/01/05 10:52:48;;;;;;;3.10;2.10;;;;;;;8.47;87.45;97318.44;5043639;28;20199;-74
2023/01/05 10:55:17;;;;;;;3.30;1.47;;;;;;;8.52;88.21;97332.84;5034599;28;20207;-74
2023/01/05 10:57:46;;;;;;;4.10;1.80;;;;;;;8.44;88.17;97326.69;5051917;28;20219;-72
2023/01/05 11:00:16;;;;;;;4.40;1.90;;;;;;;8.44;88.57;97331.97;5051509;28;20207;-72
2023/01/05 11:02:49;;;;;;;2.57;1.80;;;;;;;8.34;87.95;97322.44;5013251;28;20211;-70
2023/01/05 11:05:33;;;;;;;4.83;1.90;;;;;;;8.36;88.12;97336.28;5045836;28;20258;-72
2023/01/05 11:08:03;;;;;;;2.77;1.83;;;;;;;8.42;88.60;97326.03;4986404;28;20884;-71
2023/01/05 11:10:34;;;;;;;5.00;2.83;;;;;;;8.48;88.11;97328.00;5036346;28;21133;-70
2023/01/05 11:13:04;;;;;;;5.83;2.20;;;;;;;8.54;88.76;97335.31;5033124;28;20891;-73
2023/01/05 11:15:34;;;;;;;5.10;1.87;;;;;;;8.52;88.61;97332.00;5030478;28;20913;-72
2023/01/05 11:18:02;;;;;;;4.23;2.27;;;;;;;8.56;87.75;97327.22;5047755;28;20235;-74
2023/01/05 11:20:31;;;;;;;3.83;1.67;;;;;;;8.76;89.25;97338.25;5049387;28;20214;-70
2023/01/05 11:22:58;;;;;;;4.27;1.67;;;;;;;8.70;88.01;97331.81;5004786;28;20270;-73
2023/01/05 11:25:28;;;;;;;4.50;1.80;;;;;;;8.67;87.40;97334.78;5045831;28;20237;-70
2023/01/05 11:28:14;;;;;;;3.47;1.73;;;;;;;8.61;86.91;97309.03;5029112;28;20226;-72
2023/01/05 11:30:55;;;;;;;3.27;1.73;;;;;;;8.68;86.97;97328.50;5021114;28;21004;-72
2023/01/05 11:33:25;;;;;;;2.27;1.80;;;;;;;8.66;87.06;97333.13;5045981;28;20246;-73
2023/01/05 11:35:54;;;;;;;3.30;1.90;;;;;;;8.60;86.72;97331.16;5040268;28;20890;-73
2023/01/05 11:38:24;;;;;;;4.37;1.90;;;;;;;8.61;87.18;97330.19;5000265;28;20224;-74
2023/01/05 11:40:52;;;;;;;2.83;1.57;;;;;;;8.61;87.67;97331.00;5032942;28;20211;-71
2023/01/05 11:43:21;;;;;;;4.40;2.40;;;;;;;8.55;86.71;97329.06;5039193;28;20211;-74
2023/01/05 11:45:51;;;;;;;3.73;2.10;;;;;;;8.46;87.66;97325.56;5008205;28;20220;-71
2023/01/05 11:48:20;;;;;;;5.00;1.57;;;;;;;8.45;87.59;97338.91;5029510;28;20242;-73
2023/01/05 11:50:50;;;;;;;5.63;1.87;;;;;;;8.43;88.32;97343.53;5045464;28;20203;-71
2023/01/05 11:53:25;;;;;;;2.47;2.27;;;;;;;8.35;89.11;97336.47;5001414;28;20207;-74
2023/01/05 11:56:01;;;;;;;5.53;1.63;;;;;;;8.21;91.56;97346.69;5037928;28;20829;-72
2023/01/05 11:58:32;;;;;;;2.73;1.77;;;;;;;8.17;93.83;97355.91;5039710;28;20223;-70
2023/01/05 12:01:13;;;;;;;3.93;1.83;;;;;;;8.21;93.00;97343.22;5011664;28;20227;-70
2023/01/05 12:03:53;;;;;;;4.63;2.30;;;;;;;8.29;91.85;97355.59;5040765;28;20297;-71
2023/01/05 12:06:34;;;;;;;4.77;2.50;;;;;;;8.30;92.09;97349.31;5046223;28;20230;-71
2023/01/05 12:09:09;;;;;;;2.57;1.90;;;;;;;8.32;90.93;97344.69;5006457;28;20232;-73
2023/01/05 12:11:42;;;;;;;5.63;2.23;;;;;;;8.32;91.54;97349.97;5043833;28;20217;-70
2023/01/05 12:14:23;;;;;;;2.47;1.97;;;;;;;8.25;92.12;97344.53;5046028;28;20212;-72
2023/01/05 12:16:54;;;;;;;6.10;2.33;;;;;;;8.27;91.66;97342.56;5003948;28;20706;-71
2023/01/05 12:19:46;;;;;;;4.47;1.90;;;;;;;8.25;90.99;97348.00;5041086;28;20594;-73
2023/01/05 12:22:32;;;;;;;6.63;2.40;;;;;;;8.31;91.53;97354.44;5022409;28;20203;-75